Time;durP1;ratioP1;P1;durP2;ratioP2;P2;SDS_P1;SDS_P2;PMS_P1;PMS_P2;Temp;Humidity;BMP_temperature;BMP_pressure;BME280_temperature;BME280_humidity;BME280_pressure;Samples;Min_cycle;Max_cycle;Signal;HPM_P1;HPM_P2
2021/04/16 00:01:47;;;;;;;24.53;14.40;;;;;;;3.43;72.82;95195.41;5053926;28;20888;-78
2021/04/16 00:04:13;;;;;;;22.73;16.10;;;;;;;3.39;73.03;95189.53;5053375;28;20495;-78
2021/04/16 00:06:40;;;;;;;25.15;14.68;;;;;;;3.38;73.27;95187.03;5053982;28;20787;-78
2021/04/16 00:09:06;;;;;;;25.00;15.10;;;;;;;3.41;73.56;95186.84;5053983;28;20522;-77
2021/04/16 00:11:33;;;;;;;26.97;14.00;;;;;;;3.39;73.34;95188.69;5035178;28;20429;-78
2021/04/16 00:14:00;;;;;;;25.10;14.97;;;;;;;3.48;73.69;95188.25;5053942;28;20449;-77
2021/04/16 00:16:29;;;;;;;25.00;14.40;;;;;;;3.52;73.13;95184.56;5053712;28;20540;-78
2021/04/16 00:18:55;;;;;;;29.20;14.50;;;;;;;3.59;73.09;95180.72;5053878;28;20461;-78
2021/04/16 00:21:23;;;;;;;22.83;14.20;;;;;;;3.64;72.62;95183.06;5054111;28;20452;-78
2021/04/16 00:23:49;;;;;;;21.40;13.60;;;;;;;3.71;72.32;95168.84;5053519;28;20442;-78
2021/04/16 00:26:16;;;;;;;21.67;14.37;;;;;;;3.78;71.96;95174.56;5034999;28;20464;-78
2021/04/16 00:28:42;;;;;;;20.03;13.73;;;;;;;3.86;71.75;95178.41;5053325;28;20441;-78
2021/04/16 00:31:13;;;;;;;22.97;14.60;;;;;;;3.93;71.93;95177.16;5053611;28;20946;-78
2021/04/16 00:33:40;;;;;;;20.43;14.00;;;;;;;4.00;71.25;95183.66;5053427;28;20449;-77
2021/04/16 00:36:07;;;;;;;19.10;11.93;;;;;;;4.06;70.54;95173.91;5053644;28;20445;-78
2021/04/16 00:38:33;;;;;;;18.90;11.50;;;;;;;4.09;70.25;95178.94;5053430;28;20530;-78
2021/04/16 00:41:03;;;;;;;15.93;11.07;;;;;;;4.11;70.10;95177.06;5053383;28;20503;-78
2021/04/16 00:43:32;;;;;;;18.37;10.23;;;;;;;4.12;70.03;95169.19;5053581;28;20449;-78
2021/04/16 00:46:14;;;;;;;12.27;9.30;;;;;;;4.15;70.20;95187.22;5053849;28;20542;-78
2021/04/16 00:48:44;;;;;;;10.70;9.60;;;;;;;4.16;70.55;95181.09;5053553;28;20564;-78
2021/04/16 00:51:17;;;;;;;11.03;8.63;;;;;;;4.16;70.83;95183.69;5053353;28;20434;-77
2021/04/16 00:53:43;;;;;;;10.60;8.70;;;;;;;4.16;70.59;95186.28;5053344;28;20488;-78
2021/04/16 00:56:11;;;;;;;14.10;9.10;;;;;;;4.20;70.42;95194.75;5053272;28;20524;-78
2021/04/16 00:58:38;;;;;;;16.30;9.93;;;;;;;4.23;69.80;95185.00;5053348;28;20837;-78
2021/04/16 01:01:05;;;;;;;13.70;10.40;;;;;;;4.30;70.20;95183.75;5053565;28;20490;-78
2021/04/16 01:03:32;;;;;;;13.50;9.37;;;;;;;4.32;69.82;95187.09;5053174;28;20456;-78
2021/04/16 01:06:04;;;;;;;11.20;8.23;;;;;;;4.30;69.31;95185.50;5067613;28;20437;-78
2021/04/16 01:08:31;;;;;;;15.73;11.90;;;;;;;4.26;68.83;95182.25;5053271;28;20784;-78
2021/04/16 01:10:57;;;;;;;22.87;13.53;;;;;;;4.09;69.82;95176.31;5067840;28;20457;-78
2021/04/16 01:13:27;;;;;;;22.60;12.47;;;;;;;3.94;69.83;95176.22;5053631;28;20452;-78
2021/04/16 01:15:57;;;;;;;22.30;13.80;;;;;;;3.80;71.11;95183.09;5057402;28;20528;-78
2021/04/16 01:18:28;;;;;;;20.80;15.00;;;;;;;3.57;71.13;95186.91;5021744;28;20484;-78
2021/04/16 01:20:58;;;;;;;21.17;13.27;;;;;;;3.54;71.83;95187.06;5057527;28;20433;-78
2021/04/16 01:23:33;;;;;;;18.50;14.17;;;;;;;3.13;73.00;95181.41;5057048;28;20452;-78
2021/04/16 01:26:02;;;;;;;20.63;13.23;;;;;;;2.93;74.03;95170.31;5056792;28;20488;-77
2021/04/16 01:28:28;;;;;;;20.33;14.00;;;;;;;2.72;74.93;95176.56;5056782;28;20457;-77
2021/04/16 01:30:57;;;;;;;19.20;14.23;;;;;;;2.85;74.71;95181.97;5057142;28;20445;-78
2021/04/16 01:33:28;;;;;;;25.37;13.37;;;;;;;2.94;74.66;95177.19;5056842;28;20464;-78
2021/04/16 01:35:55;;;;;;;24.23;14.07;;;;;;;2.57;75.67;95174.72;5057334;28;20788;-77
2021/04/16 01:38:21;;;;;;;28.40;14.27;;;;;;;2.80;75.28;95171.84;5057320;28;20495;-78
2021/04/16 01:40:48;;;;;;;27.37;15.07;;;;;;;2.90;75.34;95172.25;5056983;28;20473;-79
2021/04/16 01:43:22;;;;;;;16.90;12.90;;;;;;;3.01;74.59;95163.00;5038294;28;20925;-78
2021/04/16 01:45:49;;;;;;;19.93;13.07;;;;;;;3.07;74.81;95162.69;5056697;28;20468;-78
2021/04/16 01:48:15;;;;;;;20.33;11.73;;;;;;;3.15;74.19;95166.63;5056529;28;20447;-78
2021/04/16 01:50:42;;;;;;;26.98;11.52;;;;;;;3.20;74.17;95180.22;5056726;28;20453;-78
2021/04/16 01:53:08;;;;;;;16.00;10.17;;;;;;;3.25;73.75;95184.25;5056594;28;20199;-78
2021/04/16 01:55:34;;;;;;;13.82;9.23;;;;;;;3.29;72.76;95177.97;5056197;28;20987;-78
2021/04/16 01:58:00;;;;;;;12.18;9.32;;;;;;;3.26;73.02;95172.94;5037942;28;20223;-78
2021/04/16 02:00:32;;;;;;;12.13;8.87;;;;;;;3.24;73.20;95164.41;5053964;28;20655;-78
2021/04/16 02:02:59;;;;;;;13.80;10.07;;;;;;;3.22;72.60;95161.06;5055496;28;20507;-77
2021/04/16 02:05:25;;;;;;;15.50;11.20;;;;;;;3.18;72.91;95166.47;5055514;28;20456;-78
2021/04/16 02:07:54;;;;;;;16.33;11.27;;;;;;;3.19;73.05;95169.00;5055294;28;20489;-78
2021/04/16 02:10:20;;;;;;;29.20;16.50;;;;;;;3.17;72.95;95165.63;5055528;28;20452;-78
2021/04/16 02:12:47;;;;;;;27.40;15.00;;;;;;;3.25;73.31;95167.84;5055665;28;20441;-78
2021/04/16 02:15:14;;;;;;;18.90;13.13;;;;;;;3.30;73.23;95168.44;5055723;28;20445;-78
2021/04/16 02:17:41;;;;;;;22.53;14.10;;;;;;;3.23;73.57;95177.47;5055943;28;20445;-78
2021/04/16 02:20:11;;;;;;;18.60;12.90;;;;;;;3.10;73.11;95170.28;5053938;28;20453;-78
2021/04/16 02:22:37;;;;;;;21.33;13.20;;;;;;;3.02;73.44;95175.03;5055902;28;20437;-78
2021/04/16 02:25:06;;;;;;;18.20;12.63;;;;;;;2.72;74.31;95176.56;5055213;28;20835;-77
2021/04/16 02:27:33;;;;;;;17.00;11.65;;;;;;;2.60;74.79;95179.75;5056045;28;20483;-78
2021/04/16 02:29:59;;;;;;;18.50;12.70;;;;;;;2.65;75.25;95180.41;5055693;28;20206;-78
2021/04/16 02:32:25;;;;;;;22.33;13.47;;;;;;;2.60;75.09;95183.22;5056020;28;20213;-78
2021/04/16 02:34:53;;;;;;;18.90;13.37;;;;;;;2.65;75.24;95180.41;5070409;28;20445;-78
2021/04/16 02:37:22;;;;;;;22.57;13.43;;;;;;;2.63;74.60;95188.25;5055872;28;20448;-78
2021/04/16 02:39:49;;;;;;;15.38;12.00;;;;;;;2.62;75.17;95185.72;5055417;28;20582;-78
2021/04/16 02:42:16;;;;;;;20.77;12.48;;;;;;;2.66;75.24;95184.66;5055529;28;20256;-78
2021/04/16 02:44:43;;;;;;;18.02;12.20;;;;;;;2.75;74.68;95181.59;5055427;28;20227;-78
2021/04/16 02:47:10;;;;;;;20.03;12.47;;;;;;;2.81;75.01;95191.66;5055440;28;20202;-78
2021/04/16 02:49:37;;;;;;;20.77;12.30;;;;;;;2.92;74.53;95194.56;5055190;28;20449;-78
2021/04/16 02:52:05;;;;;;;19.77;14.00;;;;;;;2.97;74.32;95195.16;5055597;28;20464;-78
2021/04/16 02:54:31;;;;;;;33.53;18.57;;;;;;;2.88;74.50;95203.38;5055348;28;20450;-78
2021/04/16 02:56:58;;;;;;;24.95;14.93;;;;;;;2.95;74.08;95189.22;5070016;28;20926;-78
2021/04/16 02:59:24;;;;;;;23.70;15.20;;;;;;;2.93;74.24;95198.00;5055433;28;20223;-78
2021/04/16 03:01:52;;;;;;;24.83;15.53;;;;;;;2.99;74.06;95195.94;5055090;28;20830;-78
2021/04/16 03:04:19;;;;;;;22.30;13.55;;;;;;;2.76;74.35;95193.66;5055143;28;20446;-78
2021/04/16 03:06:46;;;;;;;26.95;14.57;;;;;;;2.83;74.48;95192.41;5055380;28;20221;-77
2021/04/16 03:09:13;;;;;;;19.83;12.88;;;;;;;2.71;74.61;95195.63;5055308;28;20199;-78
2021/04/16 03:11:40;;;;;;;20.08;12.65;;;;;;;2.65;74.52;95185.56;5055411;28;20206;-78
2021/04/16 03:14:06;;;;;;;19.83;14.10;;;;;;;2.41;75.73;95192.78;5054854;28;20199;-78
2021/04/16 03:16:33;;;;;;;21.13;12.05;;;;;;;2.55;75.06;95190.34;5055125;28;20214;-78
2021/04/16 03:19:02;;;;;;;28.10;14.27;;;;;;;2.68;75.23;95188.84;5054814;28;20237;-78
2021/04/16 03:21:29;;;;;;;18.88;11.93;;;;;;;2.76;74.86;95191.06;5054910;28;20198;-78
2021/04/16 03:23:56;;;;;;;19.20;13.45;;;;;;;2.32;76.15;95191.47;5054969;28;20553;-78
2021/04/16 03:26:24;;;;;;;19.30;11.50;;;;;;;2.43;76.14;95196.97;5054586;28;20206;-78
2021/04/16 03:28:55;;;;;;;18.50;13.05;;;;;;;2.53;75.87;95199.94;5054663;28;20207;-78
2021/04/16 03:31:21;;;;;;;22.67;13.40;;;;;;;2.62;75.77;95203.84;5055047;28;20201;-78
2021/04/16 03:33:48;;;;;;;21.83;13.23;;;;;;;2.71;75.16;95206.00;5054589;28;20212;-78
2021/04/16 03:36:14;;;;;;;21.67;14.15;;;;;;;2.81;74.88;95209.78;5054593;28;20437;-78
2021/04/16 03:38:41;;;;;;;23.48;12.13;;;;;;;2.82;74.03;95205.44;5054483;28;20235;-78
2021/04/16 03:41:07;;;;;;;17.52;12.18;;;;;;;2.86;74.11;95206.97;5054392;28;20547;-78
2021/04/16 03:43:34;;;;;;;23.23;12.68;;;;;;;2.88;73.92;95200.78;5054408;28;20198;-78
2021/04/16 03:46:01;;;;;;;16.97;10.80;;;;;;;2.84;73.89;95206.22;5054599;28;20230;-78
2021/04/16 03:48:28;;;;;;;18.20;11.18;;;;;;;2.91;73.87;95216.22;5054016;28;20922;-78
2021/04/16 03:50:54;;;;;;;19.25;11.18;;;;;;;2.94;73.90;95210.88;5054535;28;20210;-78
2021/04/16 03:53:21;;;;;;;15.90;12.07;;;;;;;3.03;74.03;95218.19;5054214;28;20214;-78
2021/04/16 03:55:48;;;;;;;20.00;11.57;;;;;;;3.06;72.86;95212.00;5054045;28;20446;-78
2021/04/16 03:58:14;;;;;;;22.90;14.57;;;;;;;3.19;73.06;95223.44;5053859;28;20484;-78
2021/04/16 04:00:42;;;;;;;20.03;13.20;;;;;;;3.28;72.31;95222.13;5053872;28;20448;-78
2021/04/16 04:03:10;;;;;;;18.67;14.37;;;;;;;3.35;71.78;95221.75;5053912;28;20514;-78
2021/04/16 04:05:36;;;;;;;25.13;14.53;;;;;;;3.43;71.98;95216.16;5053997;28;20460;-78
2021/04/16 04:08:03;;;;;;;25.30;15.30;;;;;;;3.66;71.54;95222.75;5053979;28;20450;-78
2021/04/16 04:10:35;;;;;;;19.47;12.23;;;;;;;3.85;71.06;95225.22;5053907;28;20441;-78
2021/04/16 04:13:02;;;;;;;19.53;13.83;;;;;;;4.23;70.46;95226.56;5054286;28;20441;-78
2021/04/16 04:15:29;;;;;;;15.97;12.00;;;;;;;4.69;69.26;95237.03;5034829;28;20438;-78
2021/04/16 04:17:56;;;;;;;21.90;13.13;;;;;;;5.26;66.45;95232.00;5054087;28;20784;-78
2021/04/16 04:20:25;;;;;;;18.83;11.73;;;;;;;5.80;64.85;95233.09;5053891;28;20434;-78
2021/04/16 04:22:51;;;;;;;24.40;12.60;;;;;;;6.60;62.54;95229.00;5053851;28;20456;-78
2021/04/16 04:25:19;;;;;;;19.27;10.77;;;;;;;7.34;59.39;95231.09;5035029;28;20445;-77
2021/04/16 04:27:46;;;;;;;18.47;12.17;;;;;;;7.97;57.37;95230.28;5035078;28;20511;-78
2021/04/16 04:30:13;;;;;;;18.23;10.73;;;;;;;8.56;55.57;95238.34;5053658;28;20489;-78
2021/04/16 04:32:39;;;;;;;25.00;11.10;;;;;;;8.97;53.55;95231.94;5034902;28;20919;-79
2021/04/16 04:35:09;;;;;;;13.30;9.30;;;;;;;9.26;52.32;95228.00;5053181;28;20930;-78
2021/04/16 04:37:35;;;;;;;17.00;9.70;;;;;;;9.45;50.77;95234.47;5053264;28;20473;-79
2021/04/16 04:40:03;;;;;;;11.70;9.10;;;;;;;9.86;50.48;95234.81;5069665;28;20500;-78
2021/04/16 04:42:29;;;;;;;10.43;9.33;;;;;;;10.25;49.69;95235.31;5053371;28;20497;-78
2021/04/16 04:44:55;;;;;;;17.40;10.37;;;;;;;10.47;49.10;95232.69;5052868;28;20471;-78
2021/04/16 04:47:22;;;;;;;19.30;10.30;;;;;;;10.74;46.88;95234.94;5053287;28;20506;-78
2021/04/16 04:49:48;;;;;;;15.30;10.70;;;;;;;10.80;46.05;95233.59;5052783;28;20454;-77
2021/04/16 04:52:18;;;;;;;15.33;10.97;;;;;;;10.71;46.38;95235.19;5053384;28;20825;-78
2021/04/16 04:54:46;;;;;;;14.00;11.93;;;;;;;10.79;46.73;95240.63;5053252;28;20452;-78
2021/04/16 04:57:14;;;;;;;19.70;10.43;;;;;;;10.89;46.56;95247.75;5052826;28;20455;-78
2021/04/16 04:59:41;;;;;;;15.80;12.73;;;;;;;10.70;47.42;95246.63;5053405;28;20485;-78
2021/04/16 05:02:08;;;;;;;21.00;13.83;;;;;;;10.74;47.38;95245.41;5052796;28;20453;-77
2021/04/16 05:04:34;;;;;;;19.73;13.47;;;;;;;10.30;46.93;95248.91;5053350;28;20445;-78
2021/04/16 05:07:00;;;;;;;15.33;12.53;;;;;;;9.88;48.21;95246.00;5053549;28;20444;-78
2021/04/16 05:09:28;;;;;;;20.03;11.80;;;;;;;9.39;49.20;95242.78;5017678;28;20439;-78
2021/04/16 05:11:54;;;;;;;15.83;12.90;;;;;;;9.15;51.03;95245.44;5052840;28;20463;-78
2021/04/16 05:14:20;;;;;;;15.63;12.20;;;;;;;9.05;51.00;95245.28;5052881;28;20451;-78
2021/04/16 05:16:47;;;;;;;15.27;11.47;;;;;;;9.48;50.60;95249.94;5053342;28;20450;-78
2021/04/16 05:19:13;;;;;;;18.97;12.00;;;;;;;9.73;49.93;95251.56;5053247;28;20531;-78
2021/04/16 05:21:40;;;;;;;21.20;13.10;;;;;;;9.93;49.84;95258.75;5053204;28;20935;-78
2021/04/16 05:24:07;;;;;;;14.10;11.20;;;;;;;10.23;48.29;95255.59;5053076;28;20444;-78
2021/04/16 05:26:35;;;;;;;15.90;12.10;;;;;;;10.17;49.05;95253.44;5052773;28;20451;-78
2021/04/16 05:29:01;;;;;;;24.60;12.83;;;;;;;10.37;48.46;95254.50;5052689;28;20460;-77
2021/04/16 05:31:28;;;;;;;18.60;11.47;;;;;;;10.66;48.31;95257.47;5052970;28;20519;-78
2021/04/16 05:33:54;;;;;;;19.60;11.17;;;;;;;11.02;47.74;95264.22;5052454;28;20813;-78
2021/04/16 05:36:21;;;;;;;13.10;10.50;;;;;;;11.14;45.48;95264.03;5052387;28;20459;-78
2021/04/16 05:38:48;;;;;;;14.07;11.50;;;;;;;11.20;45.33;95265.34;5052595;28;20487;-78
2021/04/16 05:41:15;;;;;;;18.17;11.43;;;;;;;11.36;45.87;95264.94;5052631;28;20958;-77
2021/04/16 05:43:42;;;;;;;11.90;10.57;;;;;;;11.54;45.15;95257.31;5052956;28;20444;-77
2021/04/16 05:46:09;;;;;;;13.70;10.90;;;;;;;11.90;44.43;95261.34;5067076;28;20523;-77
2021/04/16 05:48:35;;;;;;;14.50;11.73;;;;;;;12.07;42.85;95252.84;5052895;28;20528;-78
2021/04/16 05:51:02;;;;;;;13.70;10.23;;;;;;;12.24;43.09;95260.16;5034376;28;20998;-77
2021/04/16 05:53:28;;;;;;;13.07;11.67;;;;;;;12.51;43.10;95250.84;5052716;28;20495;-77
2021/04/16 05:55:55;;;;;;;18.43;12.77;;;;;;;12.25;42.13;95255.72;5053035;28;20478;-77
2021/04/16 05:58:22;;;;;;;16.23;12.80;;;;;;;11.90;42.74;95261.34;5052444;28;20481;-78
2021/04/16 06:00:49;;;;;;;18.03;13.63;;;;;;;12.03;42.88;95254.09;5053566;28;20476;-77
2021/04/16 06:03:17;;;;;;;15.40;11.37;;;;;;;12.04;42.88;95248.69;5056150;28;20448;-78
2021/04/16 06:05:43;;;;;;;14.73;12.77;;;;;;;12.12;44.38;95240.13;5055996;28;20987;-77
2021/04/16 06:08:10;;;;;;;20.57;13.40;;;;;;;12.45;43.25;95246.13;5056052;28;20442;-77
2021/04/16 06:10:36;;;;;;;24.40;13.03;;;;;;;12.84;43.00;95237.38;5056012;28;20484;-77
2021/04/16 06:13:03;;;;;;;23.87;13.60;;;;;;;13.32;41.55;95239.28;5055717;28;20951;-78
2021/04/16 06:15:30;;;;;;;17.50;13.53;;;;;;;13.55;40.26;95227.47;5056234;28;20447;-78
2021/04/16 06:17:57;;;;;;;28.13;18.60;;;;;;;13.75;39.81;95233.56;5055601;28;20453;-78
2021/04/16 06:20:26;;;;;;;23.50;15.20;;;;;;;13.86;39.57;95233.38;5055763;28;20451;-77
2021/04/16 06:22:55;;;;;;;18.90;13.33;;;;;;;13.69;39.15;95238.56;5056315;28;20453;-77
2021/04/16 06:25:25;;;;;;;23.27;14.60;;;;;;;13.50;39.87;95234.97;5056120;28;20446;-78
2021/04/16 06:27:51;;;;;;;19.73;15.60;;;;;;;13.49;40.10;95237.75;5055779;28;20438;-78
2021/04/16 06:30:19;;;;;;;19.17;13.67;;;;;;;13.49;40.02;95233.31;5055524;28;20445;-77
2021/04/16 06:32:47;;;;;;;22.20;13.63;;;;;;;13.58;39.65;95229.81;5056100;28;20446;-77
2021/04/16 06:35:16;;;;;;;24.10;14.20;;;;;;;13.59;39.93;95228.03;5055684;28;20493;-77
2021/04/16 06:37:43;;;;;;;22.43;13.00;;;;;;;13.25;39.95;95217.06;5056127;28;20457;-77
2021/04/16 06:40:13;;;;;;;20.03;14.30;;;;;;;13.05;41.10;95229.38;5055593;28;20498;-77
2021/04/16 06:42:39;;;;;;;25.37;15.17;;;;;;;12.84;41.04;95228.63;5055728;28;20447;-77
2021/04/16 06:45:15;;;;;;;27.17;15.20;;;;;;;12.76;41.53;95231.13;5055565;28;20870;-78
2021/04/16 06:47:48;;;;;;;23.20;14.07;;;;;;;12.14;42.04;95230.31;5055353;28;20528;-77
2021/04/16 06:50:16;;;;;;;20.67;13.43;;;;;;;12.11;42.40;95222.69;5055197;28;20536;-77
2021/04/16 06:52:48;;;;;;;32.20;14.17;;;;;;;11.54;44.18;95223.16;5054818;28;20454;-78
2021/04/16 06:55:21;;;;;;;19.40;13.80;;;;;;;11.91;44.90;95226.22;5054928;28;20442;-77
2021/04/16 06:57:50;;;;;;;19.83;12.97;;;;;;;11.65;44.19;95225.72;5054782;28;20437;-78
2021/04/16 07:00:28;;;;;;;23.63;12.27;;;;;;;11.11;44.06;95219.66;5054774;28;20491;-78
2021/04/16 07:03:01;;;;;;;16.80;12.70;;;;;;;11.32;44.59;95224.94;5055000;28;20445;-78
2021/04/16 07:05:34;;;;;;;17.63;13.37;;;;;;;11.99;45.15;95223.75;5054849;28;20447;-77
2021/04/16 07:08:01;;;;;;;20.70;13.70;;;;;;;12.62;43.90;95234.94;5054526;28;20441;-78
2021/04/16 07:10:30;;;;;;;12.07;9.57;;;;;;;13.13;39.34;95226.06;5055277;28;20441;-77
2021/04/16 07:13:00;;;;;;;8.10;6.50;;;;;;;13.38;35.49;95222.91;5068653;28;21034;-78
2021/04/16 07:15:35;;;;;;;10.70;6.10;;;;;;;13.09;35.63;95224.66;5054419;28;20454;-77
2021/04/16 07:18:04;;;;;;;9.43;5.90;;;;;;;12.35;33.50;95233.75;5052308;28;20778;-77
2021/04/16 07:20:32;;;;;;;9.20;7.37;;;;;;;12.37;35.43;95221.28;5054407;28;20450;-77
2021/04/16 07:22:58;;;;;;;8.23;6.20;;;;;;;12.16;35.05;95225.78;5054450;28;20454;-77
2021/04/16 07:25:32;;;;;;;8.33;5.80;;;;;;;11.99;35.03;95223.75;5054213;28;20781;-76
2021/04/16 07:28:01;;;;;;;8.80;6.57;;;;;;;12.22;34.81;95225.25;5054377;28;20472;-77
2021/04/16 07:30:40;;;;;;;6.70;6.00;;;;;;;12.47;35.91;95225.78;5054145;28;20581;-77
2021/04/16 07:33:25;;;;;;;6.53;5.77;;;;;;;12.78;35.92;95227.38;5054430;28;20434;-77
2021/04/16 07:36:12;;;;;;;11.17;7.67;;;;;;;12.73;34.99;95224.34;5035589;28;21070;-77
2021/04/16 07:38:39;;;;;;;9.77;7.27;;;;;;;13.13;35.13;95218.97;5054838;28;20492;-79
2021/04/16 07:41:23;;;;;;;10.77;7.82;;;;;;;12.86;35.93;95224.06;5053484;28;20448;-78
2021/04/16 07:43:51;;;;;;;8.87;6.87;;;;;;;12.89;35.89;95224.63;5054192;28;20281;-78
2021/04/16 07:46:39;;;;;;;7.93;7.13;;;;;;;13.08;35.61;95220.38;5053591;28;20802;-78
2021/04/16 07:49:19;;;;;;;7.20;6.50;;;;;;;12.71;35.17;95221.81;5053357;28;20973;-77
2021/04/16 07:51:49;;;;;;;9.63;6.10;;;;;;;12.79;35.57;95215.88;5054072;28;20926;-77
2021/04/16 07:54:19;;;;;;;8.60;7.30;;;;;;;12.60;35.99;95215.81;5053261;28;20463;-78
2021/04/16 07:56:47;;;;;;;7.87;7.17;;;;;;;12.23;36.62;95202.41;5053765;28;20454;-78
2021/04/16 07:59:15;;;;;;;9.37;6.63;;;;;;;12.09;37.78;95208.84;5054162;28;20489;-78
2021/04/16 08:01:43;;;;;;;10.40;7.20;;;;;;;12.29;36.75;95210.59;5053649;28;20941;-78
2021/04/16 08:04:12;;;;;;;7.53;6.47;;;;;;;12.53;37.31;95223.44;5053543;28;20499;-77
2021/04/16 08:06:41;;;;;;;7.87;6.53;;;;;;;12.69;38.16;95213.22;5053835;28;20456;-77
2021/04/16 08:09:13;;;;;;;8.43;6.73;;;;;;;12.68;35.81;95213.34;5054220;28;20460;-79
2021/04/16 08:11:40;;;;;;;12.47;6.27;;;;;;;12.45;33.87;95218.00;5053616;28;21006;-77
2021/04/16 08:14:11;;;;;;;6.87;5.00;;;;;;;12.45;33.93;95225.06;5067685;28;20445;-77
2021/04/16 08:16:41;;;;;;;6.00;5.37;;;;;;;12.52;34.46;95223.56;5053842;28;20456;-78
2021/04/16 08:19:22;;;;;;;6.87;5.57;;;;;;;12.50;34.63;95217.59;5053122;28;20485;-78
2021/04/16 08:21:52;;;;;;;13.43;5.90;;;;;;;12.35;35.17;95215.31;5053368;28;20454;-77
2021/04/16 08:24:28;;;;;;;7.33;6.20;;;;;;;12.28;34.92;95205.47;5052494;28;20441;-78
2021/04/16 08:27:16;;;;;;;7.80;6.60;;;;;;;12.01;35.46;95217.41;5054021;28;20505;-76
2021/04/16 08:29:48;;;;;;;8.67;6.27;;;;;;;12.06;35.88;95219.63;5053239;28;20449;-77
2021/04/16 08:32:27;;;;;;;7.57;6.17;;;;;;;12.25;33.75;95211.84;5067553;28;21051;-77
2021/04/16 08:34:59;;;;;;;7.53;4.90;;;;;;;12.45;31.75;95204.03;5052960;28;20535;-78
2021/04/16 08:37:29;;;;;;;6.53;5.13;;;;;;;12.47;31.95;95212.63;5053770;28;20450;-79
2021/04/16 08:39:58;;;;;;;5.73;5.17;;;;;;;12.35;32.39;95209.22;5052869;28;20477;-77
2021/04/16 08:42:27;;;;;;;4.80;4.40;;;;;;;12.64;32.36;95206.69;5053471;28;20449;-78
2021/04/16 08:44:58;;;;;;;9.23;4.90;;;;;;;12.58;31.29;95199.34;5052909;28;20939;-78
2021/04/16 08:47:27;;;;;;;11.73;4.50;;;;;;;12.14;30.58;95206.63;5053150;28;20450;-79
2021/04/16 08:49:55;;;;;;;4.03;3.63;;;;;;;12.34;30.31;95197.88;5053028;28;20503;-79
2021/04/16 08:52:27;;;;;;;4.53;3.70;;;;;;;12.46;31.41;95189.88;5052828;28;20445;-78
2021/04/16 08:55:07;;;;;;;4.80;4.23;;;;;;;12.29;30.19;95184.28;5052962;28;20475;-78
2021/04/16 08:57:40;;;;;;;9.57;5.43;;;;;;;12.20;29.37;95185.09;5053059;28;20865;-77
2021/04/16 09:00:10;;;;;;;5.93;5.43;;;;;;;12.33;29.44;95190.09;5052772;28;20484;-77
2021/04/16 09:02:48;;;;;;;5.10;4.70;;;;;;;12.46;30.31;95174.94;5052728;28;21001;-77
2021/04/16 09:05:17;;;;;;;10.20;6.03;;;;;;;12.47;32.26;95175.75;5052902;28;20987;-77
2021/04/16 09:07:46;;;;;;;4.27;3.90;;;;;;;12.33;30.99;95169.88;5067092;28;20498;-78
2021/04/16 09:10:49;;;;;;;5.67;4.17;;;;;;;12.56;31.08;95156.53;5053286;28;20449;-77
2021/04/16 09:13:55;;;;;;;7.57;4.43;;;;;;;12.38;31.37;95162.41;5052554;28;20533;-78
2021/04/16 09:16:41;;;;;;;4.73;4.33;;;;;;;12.23;29.65;95162.94;5053087;28;20452;-76
2021/04/16 09:19:41;;;;;;;5.63;4.60;;;;;;;12.24;29.89;95154.09;4991375;28;20987;-77
2021/04/16 09:22:32;;;;;;;4.27;3.87;;;;;;;12.24;29.22;95148.81;4933428;29;20447;-77
2021/04/16 09:25:00;;;;;;;5.47;4.23;;;;;;;12.22;28.53;95143.69;4931094;29;20459;-77
2021/04/16 09:27:38;;;;;;;4.70;4.30;;;;;;;12.17;30.63;95137.19;4933602;29;20510;-78
2021/04/16 09:30:31;;;;;;;4.73;4.33;;;;;;;12.03;31.28;95130.47;4885862;29;20581;-78
2021/04/16 09:33:18;;;;;;;7.97;5.43;;;;;;;12.02;32.06;95141.94;4901641;29;20443;-78
2021/04/16 09:35:58;;;;;;;4.67;4.27;;;;;;;12.13;32.07;95138.38;4935573;29;20538;-77
2021/04/16 09:38:58;;;;;;;9.47;5.83;;;;;;;12.28;32.47;95134.44;4936182;29;20902;-77
2021/04/16 09:41:37;;;;;;;4.93;4.47;;;;;;;12.48;31.71;95135.31;4935720;29;20458;-78
2021/04/16 09:44:44;;;;;;;10.00;6.50;;;;;;;12.24;30.32;95143.56;4935949;29;20463;-77
2021/04/16 09:47:10;;;;;;;5.63;5.10;;;;;;;12.00;32.22;95141.25;4861103;29;20453;-77
2021/04/16 09:49:40;;;;;;;5.27;4.77;;;;;;;12.01;31.81;95140.28;4845060;29;20530;-77
2021/04/16 09:53:06;;;;;;;7.30;5.50;;;;;;;11.75;32.45;95135.44;4860586;29;20453;-77
2021/04/16 09:56:13;;;;;;;6.40;5.30;;;;;;;11.79;32.09;95142.13;4813716;29;20462;-77
2021/04/16 09:59:00;;;;;;;5.53;5.03;;;;;;;11.79;32.77;95128.97;4874156;29;20447;-78
2021/04/16 10:01:27;;;;;;;6.20;5.60;;;;;;;11.85;32.22;95130.25;4916490;29;20521;-77
2021/04/16 10:03:55;;;;;;;8.33;5.40;;;;;;;11.58;33.52;95124.72;4916380;29;20448;-78
2021/04/16 10:06:37;;;;;;;8.70;5.30;;;;;;;11.64;34.53;95119.75;4916968;29;20448;-78
2021/04/16 10:09:12;;;;;;;8.00;5.57;;;;;;;11.77;37.03;95125.63;4916838;29;20456;-76
2021/04/16 10:11:46;;;;;;;15.43;5.63;;;;;;;11.97;36.23;95109.97;4917136;29;20936;-77
2021/04/16 10:14:15;;;;;;;7.60;5.87;;;;;;;12.10;36.44;95110.53;4917282;29;20476;-77
2021/04/16 10:16:41;;;;;;;7.07;5.60;;;;;;;11.96;36.50;95110.94;4916800;29;20439;-77
2021/04/16 10:19:11;;;;;;;11.40;6.10;;;;;;;11.86;36.32;95105.66;4916720;29;20491;-78
2021/04/16 10:21:39;;;;;;;6.97;5.67;;;;;;;11.74;35.81;95109.28;4923318;28;20448;-77
2021/04/16 12:39:33;;;;;;;6.47;5.60;;;;;;;13.01;34.97;94993.53;5003183;28;20474;-77
2021/04/16 12:41:59;;;;;;;6.67;6.07;;;;;;;12.97;36.01;94987.69;5030884;28;20456;-77
2021/04/16 12:44:31;;;;;;;9.70;6.60;;;;;;;12.79;34.01;94992.06;5030759;28;20525;-77
2021/04/16 12:47:02;;;;;;;9.10;6.50;;;;;;;12.84;34.60;94999.53;5036403;28;20790;-77
2021/04/16 12:49:30;;;;;;;6.40;5.80;;;;;;;12.65;34.43;94984.56;5052973;28;20457;-78
2021/04/16 12:51:57;;;;;;;9.50;7.07;;;;;;;12.49;35.69;94974.63;5052394;28;20502;-78
2021/04/16 12:54:23;;;;;;;11.40;7.97;;;;;;;12.49;35.82;94984.31;5052400;28;20507;-78
2021/04/16 12:56:49;;;;;;;8.90;5.93;;;;;;;12.41;35.52;94977.94;5052659;28;20503;-78
2021/04/16 12:59:18;;;;;;;6.40;5.90;;;;;;;12.50;35.75;94981.53;5052586;28;20488;-78
2021/04/16 13:01:46;;;;;;;6.77;5.07;;;;;;;12.58;36.28;94983.47;5052405;28;20453;-78
2021/04/16 13:04:15;;;;;;;5.70;5.20;;;;;;;12.61;35.73;94980.56;5052492;28;20443;-77
2021/04/16 13:06:44;;;;;;;6.27;5.60;;;;;;;12.69;35.05;94978.03;5052869;28;20445;-78
2021/04/16 13:09:14;;;;;;;5.87;5.37;;;;;;;12.78;35.47;94979.84;5034195;28;20449;-78
2021/04/16 13:11:40;;;;;;;5.50;5.10;;;;;;;12.86;35.55;94974.69;5057301;28;20454;-77
2021/04/16 13:14:07;;;;;;;6.63;5.40;;;;;;;12.88;34.72;94975.38;5056686;28;20927;-78
2021/04/16 13:16:35;;;;;;;8.50;5.37;;;;;;;12.89;36.21;94973.59;5057144;28;20468;-77
2021/04/16 13:19:03;;;;;;;7.50;6.47;;;;;;;12.81;34.54;94974.31;5056734;28;20489;-78
2021/04/16 13:21:33;;;;;;;8.03;6.70;;;;;;;12.88;35.45;94964.03;5056863;28;20450;-78
2021/04/16 13:24:00;;;;;;;10.83;6.77;;;;;;;12.94;34.78;94961.66;5056903;28;20487;-78
2021/04/16 13:26:27;;;;;;;22.10;14.57;;;;;;;12.99;35.34;94969.94;5056483;28;20783;-78
2021/04/16 13:28:55;;;;;;;31.17;10.10;;;;;;;13.10;35.48;94970.78;5056358;28;20512;-78
2021/04/16 13:31:22;;;;;;;6.70;6.00;;;;;;;13.06;34.46;94977.31;5054671;28;20520;-78
2021/04/16 13:33:49;;;;;;;9.53;6.50;;;;;;;13.06;35.30;94977.31;5037721;28;20430;-78
2021/04/16 13:36:18;;;;;;;8.03;5.20;;;;;;;13.18;35.28;94971.72;5056612;28;20454;-78
2021/04/16 13:38:46;;;;;;;8.77;6.60;;;;;;;13.30;34.85;94975.88;5056591;28;20448;-77
2021/04/16 13:41:13;;;;;;;11.93;5.30;;;;;;;13.44;35.02;94968.44;5056427;28;20451;-77
2021/04/16 13:43:40;;;;;;;11.53;5.73;;;;;;;13.49;34.51;94971.47;5056642;28;20452;-78
2021/04/16 13:46:12;;;;;;;11.63;6.20;;;;;;;13.51;34.23;94967.72;5055848;28;20470;-78
2021/04/16 13:48:38;;;;;;;7.77;6.47;;;;;;;13.41;33.29;94958.19;5056591;28;20464;-77
2021/04/16 13:51:05;;;;;;;7.07;6.37;;;;;;;13.43;33.20;94957.06;5037433;28;20446;-78
2021/04/16 13:53:31;;;;;;;7.10;6.00;;;;;;;13.47;33.45;94961.06;5020861;28;20948;-78
2021/04/16 13:55:58;;;;;;;10.30;5.60;;;;;;;13.47;33.92;94950.53;5055950;28;20445;-77